This is the latest recevied weather packets stored in our database for station/object N5PA. If no packets are shown the sender has not sent any weather packets the latest 10 day(s).
| Time | Temp. | Humidity | Pressure | Rain* | Wind** | Luminosity | Snow |
|---|---|---|---|---|---|---|---|
| 1777659307 | 14.44° C | 73% | 1014.4 hPa | 0 mm | - | 1032 W/m² | - |
| 1777652707 | 15° C | 48% | 1016.1 hPa | 0 mm | - | 1027 W/m² | - |
| 1777652106 | 15° C | 48% | 1016 hPa | 0 mm | - | 1025 W/m² | - |
| 1777650005 | 15° C | 49% | 1015 hPa | 0.25 mm | - | 1027 W/m² | - |
| 1777649706 | 15° C | 52% | 1015.4 hPa | 0.25 mm | - | 1027 W/m² | - |
| 1777649407 | 15° C | 51% | 1015.5 hPa | 0.25 mm | - | 1025 W/m² | - |
| 1777649105 | 15° C | 50% | 1015.8 hPa | 0.25 mm | - | 1027 W/m² | - |
| 1777648806 | 15° C | 49% | 1015.8 hPa | 0.25 mm | - | 1027 W/m² | - |
| 1777648507 | 15° C | 49% | 1015.4 hPa | 0 mm | - | 1027 W/m² | - |
| 1777648207 | 15° C | 51% | 1015.5 hPa | 0 mm | - | 1027 W/m² | - |
| 1777647907 | 15° C | 52% | 1015.5 hPa | 0 mm | - | 1027 W/m² | - |
| 1777647307 | 15° C | 54% | 1015.5 hPa | 0 mm | - | 1025 W/m² | - |
| 1777647006 | 15° C | 53% | 1015.5 hPa | 0 mm | - | 1025 W/m² | - |
| 1777646405 | 15° C | 48% | 1014.7 hPa | 0 mm | - | 1025 W/m² | - |
| 1777646106 | 15° C | 47% | 1014.8 hPa | 0 mm | - | 1021 W/m² | - |
| 1777645807 | 15° C | 48% | 1014.8 hPa | 0 mm | - | 1025 W/m² | - |
| 1777645506 | 15° C | 47% | 1014.8 hPa | 0 mm | - | 1025 W/m² | - |
| 1777645206 | 15° C | 47% | 1014.7 hPa | 0 mm | - | 1025 W/m² | - |
| 1777644905 | 15° C | 47% | 1014.7 hPa | 0 mm | - | 1025 W/m² | - |
| 1777644606 | 15° C | 46% | 1014.8 hPa | 0 mm | - | 1025 W/m² | - |
| 1777644007 | 15° C | 46% | 1014.7 hPa | 0 mm | - | 1021 W/m² | - |
| 1777643706 | 15° C | 46% | 1014.7 hPa | 0 mm | - | 1020 W/m² | - |
| 1777643406 | 15° C | 44% | 1014.6 hPa | 0 mm | - | 1020 W/m² | - |
| 1777642806 | 15° C | 45% | 1014.7 hPa | 0 mm | - | 1021 W/m² | - |
| 1777642506 | 15° C | 45% | 1014.6 hPa | 0 mm | - | 1020 W/m² | - |
* Rain latest hour (hover to see other rain measurements)
** Current wind speed in m/s (hover to see current wind gust speed)